KBLU

Blue Canyon - Nyack Airport

Emigrant Gap, California, USA
METAR KBLU 280052Z AUTO 01009KT 340V040 10SM CLR 20/03 A3011 RMK AO2 SLP133 T02000033 TSNO
Observed Flight Rules
May-28 @ 00:52 UTC (33 minutes ago) Visual Flight Rules
Wind Visibility Clouds
10° at 9 knots 10 miles
  • Clear skies
Temperatures Readings
Current 20°C / 68°F
Dewpoint 3°C / 37°F
Humidity 33%
Altimeter 30.11" Hg
Pressure 1013.3 hPa
Elevation 1609
METAR KBLU 280052Z AUTO 01009KT 340V040 10SM CLR 20/03 A3011 RMK AO2 SLP133 T02000033 TSNO
Observed Flight Rules
May-28 @ 00:52 UTC
(33 minutes ago)
VFR
Wind Visibility
10° at 9 knots 10 miles
Clouds
  • Clear skies
Temperature Dewpoint
20°C / 68°F 3°C / 37°F
Humidity Altimeter Pressure
33% 30.11" Hg 1013.3 hPa